Time;durP1;ratioP1;P1;durP2;ratioP2;P2;SDS_P1;SDS_P2;PMS_P1;PMS_P2;Temp;Humidity;BMP_temperature;BMP_pressure;BME280_temperature;BME280_humidity;BME280_pressure;Samples;Min_cycle;Max_cycle;Signal;HPM_P1;HPM_P2
2024/01/28 00:01:57;;;;;;;31.20;26.00;;;18.00;57.30;;;;;;5053241;28;20197;-76
2024/01/28 00:04:23;;;;;;;30.92;26.83;;;18.00;57.30;;;;;;5053086;28;20195;-76
2024/01/28 00:06:49;;;;;;;30.20;25.40;;;18.00;57.30;;;;;;5051957;28;20201;-75
2024/01/28 00:09:15;;;;;;;32.47;25.35;;;18.00;57.30;;;;;;5038991;28;20213;-76
2024/01/28 00:11:43;;;;;;;29.35;24.48;;;18.00;57.30;;;;;;5058091;28;20190;-76
2024/01/28 00:14:09;;;;;;;27.27;24.15;;;18.00;57.30;;;;;;5061519;28;20202;-76
2024/01/28 00:16:35;;;;;;;28.60;24.92;;;18.00;57.30;;;;;;5051843;28;20186;-75
2024/01/28 00:19:00;;;;;;;29.52;24.75;;;18.00;57.20;;;;;;5053001;28;20250;-76
2024/01/28 00:21:27;;;;;;;30.17;25.23;;;18.00;57.30;;;;;;5051878;28;20182;-75
2024/01/28 00:23:53;;;;;;;27.55;24.00;;;18.00;57.30;;;;;;5051382;28;20253;-76
2024/01/28 00:26:20;;;;;;;29.30;24.45;;;18.00;57.30;;;;;;5052815;28;20214;-76
2024/01/28 00:28:46;;;;;;;26.52;23.10;;;18.00;57.30;;;;;;5044427;28;20268;-76
2024/01/28 00:31:12;;;;;;;28.70;24.08;;;18.10;58.00;;;;;;5084884;28;20194;-76
2024/01/28 00:33:38;;;;;;;30.02;24.95;;;18.00;57.30;;;;;;5051268;28;20274;-75
2024/01/28 00:36:04;;;;;;;26.85;23.50;;;18.00;57.30;;;;;;5089620;28;20210;-76
2024/01/28 00:38:33;;;;;;;27.20;24.00;;;18.10;57.40;;;;;;5072806;28;20190;-76
2024/01/28 00:41:02;;;;;;;27.67;24.02;;;18.00;57.30;;;;;;5089406;28;20202;-75
2024/01/28 00:43:27;;;;;;;29.02;23.95;;;18.00;57.30;;;;;;5060456;28;20186;-75
2024/01/28 00:45:53;;;;;;;26.15;23.02;;;18.00;57.40;;;;;;5050889;28;20357;-75
2024/01/28 00:48:19;;;;;;;28.08;23.52;;;18.00;57.30;;;;;;5052733;28;20280;-76
2024/01/28 00:50:45;;;;;;;26.25;22.70;;;18.00;57.40;;;;;;5051240;28;20182;-76
2024/01/28 00:53:11;;;;;;;27.05;22.52;;;18.00;57.30;;;;;;5050869;28;20198;-76
2024/01/28 00:55:36;;;;;;;24.10;21.48;;;18.00;57.30;;;;;;5050728;28;20218;-76
2024/01/28 00:58:02;;;;;;;25.50;22.75;;;18.00;57.40;;;;;;5076949;28;20615;-76
2024/01/28 01:00:28;;;;;;;26.73;22.13;;;18.00;57.30;;;;;;5063569;28;20221;-76
2024/01/28 01:02:54;;;;;;;26.83;23.25;;;18.00;57.30;;;;;;5063711;28;20193;-75
2024/01/28 01:05:20;;;;;;;25.95;22.15;;;18.00;57.30;;;;;;5034021;28;20210;-76
2024/01/28 01:07:46;;;;;;;26.42;22.17;;;18.00;57.30;;;;;;5055044;28;20190;-76
2024/01/28 01:10:12;;;;;;;24.13;21.55;;;18.00;57.30;;;;;;5037457;28;20216;-76
2024/01/28 01:12:37;;;;;;;25.13;21.70;;;18.00;57.30;;;;;;5056185;28;20269;-76
2024/01/28 01:15:04;;;;;;;24.35;21.40;;;18.00;57.30;;;;;;5054418;28;20202;-76
2024/01/28 01:17:30;;;;;;;25.48;21.65;;;18.00;57.30;;;;;;5038264;28;20249;-76
2024/01/28 01:19:55;;;;;;;23.63;20.85;;;18.00;57.30;;;;;;5056126;28;20273;-76
2024/01/28 01:22:21;;;;;;;23.55;19.95;;;18.00;57.30;;;;;;5067361;28;20198;-76
2024/01/28 01:24:47;;;;;;;25.48;21.23;;;18.00;57.30;;;;;;5054343;28;20213;-76
2024/01/28 01:27:13;;;;;;;23.23;20.58;;;18.00;57.30;;;;;;5054310;28;20217;-76
2024/01/28 01:29:39;;;;;;;22.77;19.75;;;18.00;57.30;;;;;;5054598;28;20210;-76
2024/01/28 01:32:05;;;;;;;23.75;20.55;;;18.00;57.30;;;;;;5075944;28;20212;-76
2024/01/28 01:34:30;;;;;;;23.27;20.02;;;18.00;57.30;;;;;;5039799;28;20202;-76
2024/01/28 01:36:56;;;;;;;22.73;19.60;;;18.00;57.30;;;;;;5091768;28;20197;-76
2024/01/28 01:39:22;;;;;;;24.15;20.45;;;18.00;57.40;;;;;;5071778;28;20189;-76
2024/01/28 01:41:47;;;;;;;21.83;19.52;;;18.00;57.30;;;;;;5050240;28;20202;-76
2024/01/28 01:44:13;;;;;;;20.90;18.67;;;18.00;57.30;;;;;;5070618;28;20664;-75
2024/01/28 01:46:42;;;;;;;21.60;19.30;;;18.00;57.30;;;;;;5050518;28;20190;-76
2024/01/28 01:49:09;;;;;;;24.08;20.67;;;18.00;57.30;;;;;;5056330;28;20216;-76
2024/01/28 01:51:35;;;;;;;20.33;17.98;;;18.00;57.30;;;;;;5051644;28;20191;-76
2024/01/28 01:54:02;;;;;;;20.13;18.02;;;18.00;57.30;;;;;;5033095;28;20182;-76
2024/01/28 01:56:32;;;;;;;20.23;18.08;;;18.00;57.30;;;;;;5053490;28;20688;-75
2024/01/28 01:58:58;;;;;;;21.42;18.20;;;18.00;57.20;;;;;;5050266;28;20187;-76
2024/01/28 02:01:26;;;;;;;21.15;17.95;;;18.00;57.30;;;;;;5052747;28;20280;-76
2024/01/28 02:03:55;;;;;;;22.00;17.63;;;18.00;57.30;;;;;;5048936;28;20221;-76
2024/01/28 02:06:21;;;;;;;20.48;18.23;;;18.00;57.30;;;;;;5053706;28;20685;-76
2024/01/28 02:08:47;;;;;;;20.42;17.80;;;18.00;57.30;;;;;;5049906;28;20218;-76
2024/01/28 02:11:13;;;;;;;19.85;17.52;;;18.00;57.20;;;;;;5051712;28;20209;-76
2024/01/28 02:13:39;;;;;;;19.60;17.55;;;18.00;57.30;;;;;;5051450;28;20174;-75
2024/01/28 02:16:05;;;;;;;20.95;18.38;;;18.00;57.30;;;;;;5053384;28;20218;-75
2024/01/28 02:18:30;;;;;;;18.52;16.58;;;18.00;57.30;;;;;;5051157;28;20197;-76
2024/01/28 02:20:56;;;;;;;19.65;16.77;;;18.00;57.30;;;;;;5051244;28;20190;-75
2024/01/28 02:23:22;;;;;;;19.63;17.52;;;18.00;57.20;;;;;;5057074;28;20197;-76
2024/01/28 02:25:49;;;;;;;20.30;16.98;;;18.00;57.30;;;;;;5049774;28;20194;-76
2024/01/28 02:28:16;;;;;;;19.17;16.85;;;18.00;57.30;;;;;;5036482;28;20277;-75
2024/01/28 02:30:43;;;;;;;19.63;16.55;;;18.00;57.30;;;;;;5036838;28;20212;-76
2024/01/28 02:33:08;;;;;;;18.23;16.13;;;18.00;57.30;;;;;;5049992;28;20194;-76
2024/01/28 02:35:34;;;;;;;17.30;15.40;;;18.00;57.20;;;;;;5050873;28;20271;-76
2024/01/28 02:38:00;;;;;;;17.77;15.88;;;18.00;57.30;;;;;;5061108;28;20197;-75
2024/01/28 02:40:25;;;;;;;17.50;15.60;;;18.00;57.20;;;;;;5053229;28;20211;-76
2024/01/28 02:42:51;;;;;;;17.38;15.43;;;18.00;57.30;;;;;;5033228;28;20183;-76
2024/01/28 02:45:18;;;;;;;17.40;15.57;;;18.00;57.20;;;;;;5061964;28;20217;-76
2024/01/28 02:47:44;;;;;;;17.23;15.43;;;18.00;57.20;;;;;;5050858;28;20317;-75
2024/01/28 02:50:10;;;;;;;17.20;15.40;;;18.00;57.20;;;;;;5049874;28;20214;-75
2024/01/28 02:52:36;;;;;;;17.23;15.27;;;18.00;57.20;;;;;;5032982;28;20583;-76
2024/01/28 02:55:01;;;;;;;16.92;14.82;;;18.00;57.20;;;;;;5049535;28;20221;-76
2024/01/28 02:57:27;;;;;;;16.85;15.05;;;18.00;57.20;;;;;;5052527;28;20193;-75
2024/01/28 02:59:53;;;;;;;16.73;14.68;;;18.00;57.20;;;;;;5083177;28;20284;-75
2024/01/28 03:02:18;;;;;;;17.25;15.40;;;18.00;57.10;;;;;;5066377;28;20194;-76
2024/01/28 03:04:44;;;;;;;16.60;14.80;;;18.00;57.20;;;;;;5054241;28;20210;-76
2024/01/28 03:07:11;;;;;;;16.27;14.63;;;18.00;57.20;;;;;;5054699;28;20243;-76
2024/01/28 03:09:36;;;;;;;16.25;14.48;;;18.00;57.20;;;;;;5054929;28;20222;-76
2024/01/28 03:12:03;;;;;;;16.73;15.02;;;17.90;57.10;;;;;;5069814;28;20191;-76
2024/01/28 03:14:28;;;;;;;16.77;14.35;;;18.00;57.10;;;;;;5052957;28;20234;-76
2024/01/28 03:16:54;;;;;;;16.15;14.50;;;18.00;57.10;;;;;;5059452;28;20258;-76
2024/01/28 03:19:20;;;;;;;14.75;13.25;;;18.00;57.10;;;;;;5054581;28;20202;-76
2024/01/28 03:21:45;;;;;;;14.60;13.10;;;17.90;57.00;;;;;;5055422;28;20198;-76
2024/01/28 03:24:11;;;;;;;15.65;14.05;;;18.00;57.20;;;;;;5052664;28;20254;-76
2024/01/28 03:26:37;;;;;;;16.33;13.93;;;18.00;57.20;;;;;;5038666;28;20194;-76
2024/01/28 03:29:04;;;;;;;17.10;14.52;;;18.00;57.10;;;;;;5071637;28;20693;-76
2024/01/28 03:31:30;;;;;;;15.27;13.68;;;18.00;57.10;;;;;;5063013;28;20300;-76
2024/01/28 03:33:57;;;;;;;15.95;13.90;;;18.00;57.20;;;;;;5048863;28;20191;-76
2024/01/28 03:36:24;;;;;;;14.70;13.20;;;18.00;57.10;;;;;;5075661;28;20217;-76
2024/01/28 03:38:49;;;;;;;14.93;13.15;;;17.90;57.10;;;;;;5054954;28;20186;-76
2024/01/28 03:41:16;;;;;;;14.80;12.85;;;17.90;57.00;;;;;;5053241;28;20201;-76
2024/01/28 03:43:46;;;;;;;14.75;12.93;;;17.90;57.00;;;;;;5038906;28;20273;-75
2024/01/28 03:46:13;;;;;;;15.73;13.65;;;17.90;57.10;;;;;;5060523;28;20295;-76
2024/01/28 03:48:39;;;;;;;14.25;12.38;;;17.90;57.00;;;;;;5046434;28;20214;-76
2024/01/28 03:51:06;;;;;;;13.98;12.48;;;17.90;57.00;;;;;;5052314;28;20197;-76
2024/01/28 03:53:32;;;;;;;14.25;12.75;;;17.90;56.90;;;;;;5053421;28;20183;-76
2024/01/28 03:55:58;;;;;;;13.80;12.32;;;17.90;56.90;;;;;;5035900;28;20214;-76
2024/01/28 03:58:24;;;;;;;13.27;11.88;;;18.00;57.00;;;;;;5040540;28;20194;-76
2024/01/28 04:00:50;;;;;;;13.38;11.88;;;17.90;56.90;;;;;;5051005;28;20170;-76
2024/01/28 04:03:16;;;;;;;13.65;12.20;;;17.90;56.90;;;;;;5065187;28;20186;-75
2024/01/28 04:05:43;;;;;;;12.32;10.98;;;17.90;56.90;;;;;;5055653;28;20695;-76
2024/01/28 04:08:12;;;;;;;13.88;12.45;;;17.90;57.00;;;;;;5064519;28;20194;-76
2024/01/28 04:10:38;;;;;;;12.07;10.77;;;17.90;56.90;;;;;;5051869;28;20198;-76
2024/01/28 04:13:04;;;;;;;12.95;11.60;;;17.90;57.00;;;;;;5085377;28;20187;-76
2024/01/28 04:15:29;;;;;;;12.93;11.43;;;18.00;57.00;;;;;;5051261;28;20211;-76
2024/01/28 04:17:55;;;;;;;12.85;11.57;;;17.90;56.90;;;;;;5051798;28;20192;-75
2024/01/28 04:20:21;;;;;;;12.85;11.48;;;17.90;56.90;;;;;;5052966;28;20248;-76
2024/01/28 04:22:47;;;;;;;11.70;10.50;;;17.90;57.00;;;;;;5061995;28;20187;-76
2024/01/28 04:25:14;;;;;;;12.35;11.07;;;18.00;57.00;;;;;;5076774;28;20205;-76
2024/01/28 04:27:40;;;;;;;12.18;10.90;;;17.90;57.00;;;;;;5053646;28;20198;-76
2024/01/28 04:30:08;;;;;;;12.05;10.60;;;17.90;56.90;;;;;;5052849;28;20221;-76
2024/01/28 04:32:34;;;;;;;12.27;10.98;;;17.90;56.90;;;;;;5052840;28;20190;-76
2024/01/28 04:35:00;;;;;;;11.48;10.27;;;17.90;56.90;;;;;;5052544;28;20210;-76
2024/01/28 04:37:26;;;;;;;11.63;10.43;;;17.90;56.90;;;;;;5051572;28;20191;-76
2024/01/28 04:39:53;;;;;;;11.15;9.93;;;17.90;56.90;;;;;;5090565;28;20223;-76
2024/01/28 04:42:22;;;;;;;11.15;9.70;;;17.90;56.90;;;;;;5065098;28;20187;-76
2024/01/28 04:44:50;;;;;;;11.27;10.15;;;17.90;56.80;;;;;;5053567;28;20210;-75
2024/01/28 04:47:16;;;;;;;12.02;10.68;;;17.90;56.80;;;;;;5052296;28;20187;-75
2024/01/28 04:49:43;;;;;;;11.38;9.73;;;17.90;56.80;;;;;;5053806;28;20229;-76
2024/01/28 04:52:08;;;;;;;10.48;9.38;;;17.90;56.80;;;;;;5077566;28;20182;-76
2024/01/28 04:54:35;;;;;;;10.63;9.52;;;17.90;56.80;;;;;;5052039;28;20212;-76
2024/01/28 04:57:01;;;;;;;11.40;10.23;;;17.90;56.80;;;;;;5067698;28;20191;-75
2024/01/28 04:59:29;;;;;;;10.82;9.73;;;17.90;56.80;;;;;;5052120;28;20301;-76
2024/01/28 05:01:55;;;;;;;9.82;8.82;;;17.90;56.80;;;;;;5052012;28;20205;-76
2024/01/28 05:04:21;;;;;;;10.07;9.07;;;17.90;56.80;;;;;;5051802;28;20190;-76
2024/01/28 05:06:47;;;;;;;10.35;9.35;;;17.90;56.80;;;;;;5052189;28;20217;-76
2024/01/28 05:09:15;;;;;;;11.00;9.80;;;17.90;56.80;;;;;;5053139;28;20210;-76
2024/01/28 05:11:41;;;;;;;9.90;8.90;;;17.90;56.80;;;;;;5067446;28;20187;-76
2024/01/28 05:14:06;;;;;;;9.73;8.82;;;17.90;56.80;;;;;;5074213;28;20272;-76
2024/01/28 05:16:32;;;;;;;10.85;9.75;;;17.90;56.80;;;;;;5043868;28;20246;-76
2024/01/28 05:18:58;;;;;;;9.40;8.40;;;17.90;56.70;;;;;;5068366;28;20193;-76
2024/01/28 05:21:24;;;;;;;10.02;9.02;;;17.90;56.80;;;;;;5050653;28;20199;-76
2024/01/28 05:23:50;;;;;;;10.75;9.10;;;17.90;56.80;;;;;;5052005;28;20186;-75
2024/01/28 05:26:17;;;;;;;9.48;8.48;;;17.90;56.80;;;;;;5084472;28;20715;-76
2024/01/28 05:28:44;;;;;;;10.55;9.45;;;17.90;56.80;;;;;;5085088;28;20206;-76
2024/01/28 05:31:11;;;;;;;9.15;8.25;;;17.90;57.40;;;;;;5085057;28;20244;-75
2024/01/28 05:33:37;;;;;;;9.35;8.45;;;17.90;56.70;;;;;;5051432;28;20277;-76
2024/01/28 05:36:14;;;;;;;9.52;8.52;;;17.90;56.80;;;;;;5050243;28;20210;-76
2024/01/28 05:38:40;;;;;;;9.23;8.27;;;17.90;56.70;;;;;;5051405;28;20643;-76
2024/01/28 05:41:08;;;;;;;10.00;8.95;;;17.90;56.60;;;;;;5051723;28;20179;-76
2024/01/28 05:43:33;;;;;;;9.23;8.32;;;17.90;56.70;;;;;;5050184;28;20205;-75
2024/01/28 05:46:01;;;;;;;9.65;8.43;;;17.90;56.60;;;;;;5066147;28;20206;-76
2024/01/28 05:48:27;;;;;;;8.32;7.50;;;17.90;56.60;;;;;;5051247;28;20213;-75
2024/01/28 05:50:52;;;;;;;8.85;7.95;;;17.90;56.60;;;;;;5084402;28;20182;-76
2024/01/28 05:53:18;;;;;;;8.55;7.65;;;17.90;56.60;;;;;;5067067;28;20212;-76
2024/01/28 05:55:44;;;;;;;8.73;7.82;;;17.90;56.60;;;;;;5050998;28;20202;-75
2024/01/28 05:58:10;;;;;;;8.93;8.02;;;17.90;56.60;;;;;;5051191;28;20206;-76
2024/01/28 06:00:36;;;;;;;9.48;7.78;;;17.90;56.60;;;;;;5084145;28;20194;-75
2024/01/28 06:03:03;;;;;;;8.85;7.95;;;17.90;56.60;;;;;;5048685;28;20186;-75
2024/01/28 06:05:29;;;;;;;7.85;7.05;;;17.90;56.60;;;;;;5066798;28;20715;-75
2024/01/28 06:07:55;;;;;;;8.75;7.85;;;17.90;56.60;;;;;;5033764;28;20191;-75
2024/01/28 06:10:21;;;;;;;8.10;7.32;;;17.90;56.60;;;;;;5051338;28;20225;-76
2024/01/28 06:12:46;;;;;;;8.35;7.45;;;17.90;56.60;;;;;;5049753;28;20187;-76
2024/01/28 06:15:12;;;;;;;8.10;7.30;;;17.90;56.60;;;;;;5049896;28;20221;-76
2024/01/28 06:17:38;;;;;;;7.97;7.18;;;17.90;56.60;;;;;;5034018;28;20641;-76
2024/01/28 06:20:06;;;;;;;7.72;6.93;;;17.80;56.60;;;;;;5051518;28;20738;-76
2024/01/28 06:22:32;;;;;;;7.93;7.13;;;17.80;56.60;;;;;;5050524;28;20202;-76
2024/01/28 06:25:01;;;;;;;7.68;6.97;;;17.80;56.50;;;;;;5049915;28;20241;-76
2024/01/28 06:27:27;;;;;;;8.32;7.53;;;17.80;56.60;;;;;;5051125;28;20198;-75
2024/01/28 06:29:54;;;;;;;7.63;6.93;;;17.80;56.50;;;;;;5051162;28;20209;-76
2024/01/28 06:32:21;;;;;;;7.60;6.80;;;17.80;56.40;;;;;;5051289;28;20190;-76
2024/01/28 06:34:51;;;;;;;7.10;6.40;;;17.90;56.50;;;;;;5061091;28;20201;-76
2024/01/28 06:37:16;;;;;;;7.13;6.43;;;17.90;56.50;;;;;;5061239;28;20340;-76
2024/01/28 06:39:42;;;;;;;6.40;5.80;;;17.80;56.40;;;;;;5069438;28;20197;-76
2024/01/28 06:42:09;;;;;;;7.03;6.32;;;17.80;56.30;;;;;;5053473;28;20209;-76
2024/01/28 06:44:36;;;;;;;7.55;6.85;;;17.80;56.40;;;;;;5062504;28;20205;-76
2024/01/28 06:47:03;;;;;;;7.60;6.78;;;17.90;56.50;;;;;;5058136;28;20280;-76
2024/01/28 06:49:29;;;;;;;7.45;6.75;;;17.90;56.50;;;;;;5056422;28;20218;-76
2024/01/28 06:51:55;;;;;;;7.28;6.57;;;17.80;56.40;;;;;;5053832;28;20253;-76
2024/01/28 06:54:21;;;;;;;7.13;6.43;;;17.90;56.50;;;;;;5036915;28;20273;-76
2024/01/28 06:56:50;;;;;;;7.25;6.55;;;17.80;56.40;;;;;;5057827;28;20186;-76
2024/01/28 06:59:18;;;;;;;7.32;6.60;;;17.80;56.40;;;;;;5072889;28;20193;-76
2024/01/28 07:01:45;;;;;;;7.30;6.60;;;17.80;56.40;;;;;;5066684;28;20198;-75
2024/01/28 07:04:11;;;;;;;7.20;6.50;;;17.90;56.50;;;;;;5056020;28;20184;-75
2024/01/28 07:06:36;;;;;;;6.47;5.88;;;17.80;56.40;;;;;;5060196;28;20197;-76
2024/01/28 07:09:02;;;;;;;6.38;5.78;;;17.80;56.40;;;;;;5054064;28;20203;-76
2024/01/28 07:11:28;;;;;;;6.78;6.18;;;17.80;56.40;;;;;;5077411;28;20180;-76
2024/01/28 07:13:54;;;;;;;6.78;6.07;;;17.80;56.40;;;;;;5051697;28;20198;-75
2024/01/28 07:16:20;;;;;;;6.47;5.82;;;17.80;56.40;;;;;;5035796;28;20209;-76
2024/01/28 07:18:46;;;;;;;6.88;6.20;;;17.80;56.30;;;;;;5071612;28;20202;-75
2024/01/28 07:21:13;;;;;;;6.70;6.00;;;17.80;56.30;;;;;;5040035;28;20194;-76
2024/01/28 07:23:40;;;;;;;6.50;5.90;;;17.80;56.30;;;;;;5069060;28;20186;-74
2024/01/28 07:26:08;;;;;;;6.45;5.95;;;17.80;56.20;;;;;;5072324;28;20242;-76
2024/01/28 07:28:34;;;;;;;6.78;6.07;;;17.90;56.30;;;;;;5077005;28;20231;-75
2024/01/28 07:31:00;;;;;;;6.80;6.18;;;17.80;56.20;;;;;;5054064;28;20182;-75
2024/01/28 07:33:26;;;;;;;6.78;6.18;;;17.80;56.20;;;;;;5054755;28;20182;-75
2024/01/28 07:35:51;;;;;;;7.38;6.68;;;17.80;56.20;;;;;;5055148;28;20207;-76
2024/01/28 07:38:17;;;;;;;6.93;6.32;;;17.80;56.30;;;;;;5057331;28;20183;-76
2024/01/28 07:40:43;;;;;;;7.10;6.40;;;17.90;56.20;;;;;;5042441;28;20195;-76
2024/01/28 07:43:09;;;;;;;6.78;6.18;;;17.80;56.20;;;;;;5055239;28;20182;-76
2024/01/28 07:45:37;;;;;;;7.45;6.75;;;17.90;56.30;;;;;;5052301;28;20217;-76
2024/01/28 07:48:03;;;;;;;6.90;6.07;;;17.80;56.20;;;;;;5073347;28;20231;-76
2024/01/28 07:50:29;;;;;;;6.82;6.22;;;17.80;56.20;;;;;;5042116;28;20267;-76
2024/01/28 07:52:55;;;;;;;6.97;6.28;;;17.80;56.20;;;;;;5052204;28;20677;-75
2024/01/28 07:55:21;;;;;;;7.03;6.28;;;17.90;56.30;;;;;;5058951;28;20201;-76
2024/01/28 07:57:47;;;;;;;6.90;6.20;;;17.80;56.20;;;;;;5059836;28;20171;-75
2024/01/28 08:00:13;;;;;;;7.20;6.60;;;17.80;56.20;;;;;;5054226;28;20194;-75
2024/01/28 08:02:39;;;;;;;7.10;6.40;;;17.80;56.30;;;;;;5042429;28;20209;-75
2024/01/28 08:05:05;;;;;;;6.57;6.00;;;17.80;56.20;;;;;;5055860;28;20233;-75
2024/01/28 08:07:31;;;;;;;7.25;6.55;;;17.80;56.20;;;;;;5036061;28;20187;-75
2024/01/28 08:09:57;;;;;;;7.38;6.68;;;17.90;56.30;;;;;;5052191;28;20214;-76
2024/01/28 08:12:23;;;;;;;7.35;6.65;;;17.90;56.20;;;;;;5051851;28;20240;-75
2024/01/28 08:14:48;;;;;;;7.40;6.70;;;17.90;56.20;;;;;;5061705;28;20289;-75
2024/01/28 08:17:14;;;;;;;6.82;6.22;;;17.80;56.20;;;;;;5045614;28;20228;-76
2024/01/28 08:19:40;;;;;;;7.50;6.63;;;17.90;56.30;;;;;;5051801;28;20277;-75
2024/01/28 08:22:06;;;;;;;6.63;6.03;;;17.90;56.80;;;;;;5058520;28;20186;-75
2024/01/28 08:24:32;;;;;;;7.72;6.95;;;17.90;56.20;;;;;;5052623;28;20221;-75
2024/01/28 08:26:58;;;;;;;7.22;6.53;;;17.90;56.30;;;;;;5059609;28;20293;-75
2024/01/28 08:29:25;;;;;;;7.72;7.03;;;17.90;56.20;;;;;;5035232;28;20218;-75
2024/01/28 08:31:51;;;;;;;7.13;6.43;;;17.90;56.20;;;;;;5036185;28;20190;-75
2024/01/28 08:34:17;;;;;;;7.97;7.18;;;17.90;56.20;;;;;;5054461;28;20186;-75
2024/01/28 08:36:42;;;;;;;7.45;6.70;;;17.90;56.20;;;;;;5057459;28;20660;-75
2024/01/28 08:39:09;;;;;;;7.45;6.75;;;17.90;56.20;;;;;;5043058;28;20202;-76
2024/01/28 08:41:38;;;;;;;7.70;6.97;;;17.90;56.20;;;;;;5050762;28;20617;-75
2024/01/28 08:44:05;;;;;;;6.80;6.18;;;17.90;56.20;;;;;;5050960;28;20261;-76
2024/01/28 08:46:31;;;;;;;7.00;6.35;;;17.90;56.20;;;;;;5054409;28;20206;-75
2024/01/28 08:48:57;;;;;;;7.10;6.40;;;17.90;56.30;;;;;;5055604;28;20246;-75
2024/01/28 08:51:23;;;;;;;7.13;6.43;;;17.90;56.30;;;;;;5038328;28;20209;-76
2024/01/28 08:53:49;;;;;;;6.80;6.10;;;17.90;56.30;;;;;;5045185;28;20179;-75
2024/01/28 08:56:14;;;;;;;7.13;6.43;;;17.90;56.20;;;;;;5067467;28;20194;-76
2024/01/28 08:58:40;;;;;;;6.15;5.60;;;17.90;56.20;;;;;;5053508;28;20665;-74
2024/01/28 09:01:08;;;;;;;6.88;6.28;;;17.90;56.30;;;;;;5057299;28;20209;-75
2024/01/28 09:03:33;;;;;;;6.93;6.22;;;17.90;56.30;;;;;;5046969;28;20225;-75
2024/01/28 09:06:02;;;;;;;7.05;6.35;;;17.90;56.30;;;;;;5065396;28;20224;-76
2024/01/28 09:08:30;;;;;;;7.05;6.35;;;17.90;56.40;;;;;;5035113;28;20243;-75
2024/01/28 09:10:56;;;;;;;6.80;6.10;;;17.90;56.40;;;;;;5033805;28;20194;-75
2024/01/28 09:13:24;;;;;;;6.53;5.90;;;17.90;56.40;;;;;;5058061;28;20195;-75
2024/01/28 09:15:50;;;;;;;7.30;6.60;;;17.90;56.30;;;;;;5050702;28;20244;-75
2024/01/28 09:18:16;;;;;;;6.65;6.05;;;17.90;56.40;;;;;;5048331;28;20178;-75
2024/01/28 09:20:42;;;;;;;6.53;5.93;;;17.90;56.40;;;;;;5051246;28;20191;-75
2024/01/28 09:23:08;;;;;;;6.07;5.47;;;17.90;57.00;;;;;;5050976;28;20260;-75
2024/01/28 09:25:34;;;;;;;6.90;6.25;;;18.00;56.40;;;;;;5050313;28;20299;-75
2024/01/28 09:28:00;;;;;;;7.00;6.30;;;18.00;56.50;;;;;;5050388;28;20221;-75
2024/01/28 09:30:26;;;;;;;6.43;5.82;;;18.00;56.40;;;;;;5050252;28;20246;-75
2024/01/28 09:32:53;;;;;;;5.93;5.43;;;18.00;56.50;;;;;;5033974;28;20205;-75
2024/01/28 09:35:19;;;;;;;6.57;5.88;;;18.00;56.40;;;;;;5082624;28;20230;-74
2024/01/28 09:37:46;;;;;;;6.57;6.00;;;18.00;56.40;;;;;;5064494;28;20235;-74
2024/01/28 09:40:13;;;;;;;6.43;5.82;;;18.10;56.40;;;;;;5058511;28;20197;-74
2024/01/28 09:42:44;;;;;;;6.63;5.60;;;18.00;56.40;;;;;;5045224;28;20187;-75
2024/01/28 09:45:11;;;;;;;6.53;5.93;;;18.10;56.50;;;;;;5047804;28;20210;-74
2024/01/28 09:47:39;;;;;;;6.53;5.93;;;18.00;56.50;;;;;;5092683;28;20272;-74
2024/01/28 09:50:08;;;;;;;6.22;5.63;;;18.10;56.50;;;;;;5054763;28;20203;-73
2024/01/28 09:52:34;;;;;;;6.55;6.03;;;18.10;56.50;;;;;;5050546;28;20187;-75
2024/01/28 09:55:00;;;;;;;6.18;5.57;;;18.00;56.40;;;;;;5059876;28;20273;-75
2024/01/28 09:57:25;;;;;;;6.20;5.60;;;18.10;56.60;;;;;;5055629;28;20702;-75
2024/01/28 09:59:51;;;;;;;6.68;5.57;;;18.10;56.50;;;;;;5051038;28;20201;-74
2024/01/28 10:02:17;;;;;;;5.78;5.18;;;18.10;56.50;;;;;;5064884;28;20182;-74
2024/01/28 10:04:45;;;;;;;6.03;5.45;;;18.10;56.60;;;;;;5049986;28;20202;-74
2024/01/28 10:07:11;;;;;;;5.88;5.38;;;18.10;56.60;;;;;;5052121;28;20195;-74
2024/01/28 10:09:38;;;;;;;6.03;5.53;;;18.10;56.50;;;;;;5055450;28;20215;-73
2024/01/28 10:12:04;;;;;;;5.03;4.40;;;18.10;57.10;;;;;;5080410;28;20191;-74
2024/01/28 10:14:30;;;;;;;5.75;5.10;;;18.10;56.60;;;;;;5060864;28;20212;-75
2024/01/28 10:16:58;;;;;;;5.57;5.07;;;18.10;56.50;;;;;;5084979;28;20182;-75
2024/01/28 10:19:25;;;;;;;6.03;5.43;;;18.10;56.60;;;;;;5051314;28;20190;-75
2024/01/28 10:21:52;;;;;;;5.50;5.00;;;18.10;56.50;;;;;;5051261;28;20270;-75
2024/01/28 10:24:18;;;;;;;4.78;4.38;;;18.10;56.60;;;;;;5037064;28;20186;-75
2024/01/28 10:26:44;;;;;;;6.28;5.35;;;18.10;56.60;;;;;;5058661;28;20198;-74
2024/01/28 10:29:12;;;;;;;5.45;4.95;;;18.10;56.60;;;;;;5058794;28;20212;-74
2024/01/28 10:31:38;;;;;;;5.35;4.85;;;18.20;56.60;;;;;;5045751;28;20244;-75
2024/01/28 10:34:04;;;;;;;5.32;4.82;;;18.10;56.60;;;;;;5060763;28;20281;-74
2024/01/28 10:36:36;;;;;;;5.57;5.07;;;18.10;56.60;;;;;;5043380;28;20311;-74
2024/01/28 10:39:04;;;;;;;5.50;4.47;;;18.10;56.60;;;;;;5052655;28;20749;-72
2024/01/28 10:41:34;;;;;;;5.72;5.22;;;18.20;56.60;;;;;;5047010;28;20217;-72
2024/01/28 10:44:06;;;;;;;4.88;4.47;;;18.20;56.60;;;;;;5060693;28;20193;-72
2024/01/28 10:46:38;;;;;;;5.32;4.82;;;18.20;57.00;;;;;;5058688;28;20210;-72
2024/01/28 10:49:09;;;;;;;5.25;4.75;;;18.20;56.60;;;;;;5053441;28;20732;-73
2024/01/28 10:51:39;;;;;;;5.47;4.95;;;18.20;56.50;;;;;;5053451;28;20189;-72
2024/01/28 10:54:07;;;;;;;5.00;4.55;;;18.20;56.60;;;;;;5055602;28;20191;-73
2024/01/28 10:56:35;;;;;;;5.20;4.70;;;18.20;56.60;;;;;;5058033;28;20194;-73
2024/01/28 10:59:02;;;;;;;5.35;4.85;;;18.20;56.60;;;;;;5059178;28;20254;-73
2024/01/28 11:01:29;;;;;;;5.25;4.85;;;18.20;56.60;;;;;;5059158;28;20186;-73
2024/01/28 11:03:57;;;;;;;5.32;4.82;;;18.20;56.60;;;;;;5054230;28;20340;-73
2024/01/28 11:06:28;;;;;;;5.30;4.80;;;18.20;56.60;;;;;;5053244;28;20209;-74
2024/01/28 11:08:55;;;;;;;5.20;4.70;;;18.20;56.60;;;;;;5049690;28;20205;-72
2024/01/28 11:11:24;;;;;;;4.97;4.57;;;18.20;56.70;;;;;;5074478;28;20174;-73
2024/01/28 11:13:50;;;;;;;4.60;4.20;;;18.20;56.70;;;;;;5053363;28;20175;-74
2024/01/28 11:16:19;;;;;;;4.72;4.32;;;18.20;56.60;;;;;;5063991;28;20210;-73
2024/01/28 11:19:10;;;;;;;5.07;4.57;;;18.20;56.70;;;;;;5053120;28;20179;-73
2024/01/28 11:21:38;;;;;;;4.80;4.40;;;18.20;56.60;;;;;;5052966;28;20182;-72
2024/01/28 11:24:14;;;;;;;4.70;4.25;;;18.20;56.60;;;;;;5056537;28;20236;-72
2024/01/28 11:26:44;;;;;;;4.60;4.20;;;18.20;56.60;;;;;;5070258;28;20198;-72
2024/01/28 11:29:10;;;;;;;4.65;3.90;;;18.20;56.60;;;;;;5054060;28;20204;-73
2024/01/28 11:31:40;;;;;;;4.72;4.30;;;18.20;56.60;;;;;;5052846;28;20344;-73
2024/01/28 11:34:20;;;;;;;4.30;3.90;;;18.20;56.60;;;;;;5056859;28;20197;-73
2024/01/28 11:36:53;;;;;;;4.40;4.07;;;18.30;56.80;;;;;;5057102;28;20596;-72
2024/01/28 11:39:34;;;;;;;4.70;4.30;;;18.20;56.70;;;;;;5056743;28;20205;-73
2024/01/28 11:42:04;;;;;;;4.65;4.25;;;18.20;56.70;;;;;;5084188;28;20577;-72
2024/01/28 11:44:30;;;;;;;4.85;4.43;;;18.20;56.70;;;;;;5038732;28;20206;-73
2024/01/28 11:46:56;;;;;;;5.10;4.50;;;18.20;56.70;;;;;;5035895;28;20240;-73
2024/01/28 11:49:22;;;;;;;4.68;4.28;;;18.20;56.70;;;;;;5065300;28;20217;-73
2024/01/28 11:51:47;;;;;;;5.15;4.65;;;18.30;56.80;;;;;;5039170;28;20182;-73
2024/01/28 11:54:13;;;;;;;4.43;4.03;;;18.20;56.70;;;;;;5039455;28;20190;-73
2024/01/28 11:56:39;;;;;;;4.28;3.92;;;18.20;56.70;;;;;;5053447;28;20234;-74
2024/01/28 11:59:09;;;;;;;4.13;3.72;;;18.30;56.70;;;;;;5043708;28;20193;-73
2024/01/28 12:01:34;;;;;;;4.40;4.00;;;18.20;56.70;;;;;;5051935;28;20174;-73
2024/01/28 12:04:03;;;;;;;4.20;3.80;;;18.30;56.80;;;;;;5035314;28;20224;-73
2024/01/28 12:06:30;;;;;;;4.18;3.83;;;18.20;56.70;;;;;;5033412;28;20201;-73
2024/01/28 12:08:57;;;;;;;4.30;3.90;;;18.20;56.60;;;;;;5089483;28;20679;-74
2024/01/28 12:11:31;;;;;;;4.25;3.85;;;18.30;56.70;;;;;;5092826;28;20174;-73
2024/01/28 12:13:56;;;;;;;4.47;3.80;;;18.20;56.70;;;;;;5046412;28;20185;-73
2024/01/28 12:16:24;;;;;;;4.25;3.85;;;18.30;56.80;;;;;;5055255;28;20285;-73
2024/01/28 12:18:54;;;;;;;4.50;4.10;;;18.30;56.80;;;;;;5043551;28;20189;-73
2024/01/28 12:21:27;;;;;;;4.30;3.90;;;18.30;56.70;;;;;;5051988;28;20201;-73
2024/01/28 12:24:02;;;;;;;4.18;3.85;;;18.30;56.70;;;;;;5063702;28;20190;-73
2024/01/28 12:26:32;;;;;;;4.03;3.63;;;18.30;56.70;;;;;;5043789;28;20201;-73
2024/01/28 12:28:59;;;;;;;4.30;3.90;;;18.30;56.70;;;;;;5058864;28;20221;-73
2024/01/28 12:31:25;;;;;;;4.32;3.92;;;18.30;56.70;;;;;;5034673;28;20684;-74
2024/01/28 12:33:51;;;;;;;3.67;3.38;;;18.30;56.70;;;;;;5058295;28;20182;-73
2024/01/28 12:36:17;;;;;;;4.45;4.05;;;18.30;56.70;;;;;;5051116;28;20206;-75